sensor_id;sensor_type;location;lat;lon;timestamp;pressure;altitude;pressure_sealevel;temperature;humidity
25650;BME280;13505;45.196;5.696;2023-03-20T05:00:19;99633.56;;;7.64;93.47
25650;BME280;13505;45.196;5.696;2023-03-20T05:05:10;99628.44;;;7.59;93.37
25650;BME280;13505;45.196;5.696;2023-03-20T05:10:02;99630.91;;;7.65;94.42
25650;BME280;13505;45.196;5.696;2023-03-20T05:14:52;99621.88;;;7.76;95.82
25650;BME280;13505;45.196;5.696;2023-03-20T05:19:46;99626.03;;;7.83;95.00
25650;BME280;13505;45.196;5.696;2023-03-20T05:24:36;99621.44;;;7.91;95.20
25650;BME280;13505;45.196;5.696;2023-03-20T05:29:26;99620.53;;;7.92;94.80
25650;BME280;13505;45.196;5.696;2023-03-20T05:34:17;99631.78;;;7.98;94.52
25650;BME280;13505;45.196;5.696;2023-03-20T05:39:07;99630.19;;;7.92;94.33
25650;BME280;13505;45.196;5.696;2023-03-20T05:43:57;99645.00;;;7.94;94.74
25650;BME280;13505;45.196;5.696;2023-03-20T05:48:48;99636.19;;;7.95;93.90
25650;BME280;13505;45.196;5.696;2023-03-20T05:53:38;99628.28;;;7.97;94.52
25650;BME280;13505;45.196;5.696;2023-03-20T05:58:28;99640.50;;;7.98;94.91
25650;BME280;13505;45.196;5.696;2023-03-20T06:03:19;99637.84;;;8.00;94.81
25650;BME280;13505;45.196;5.696;2023-03-20T06:08:10;99638.75;;;7.99;94.20
25650;BME280;13505;45.196;5.696;2023-03-20T06:13:01;99637.78;;;8.01;94.06
25650;BME280;13505;45.196;5.696;2023-03-20T06:17:51;99644.72;;;8.04;93.80
25650;BME280;13505;45.196;5.696;2023-03-20T06:22:42;99643.78;;;8.06;93.59
25650;BME280;13505;45.196;5.696;2023-03-20T06:27:33;99653.28;;;8.12;93.93
25650;BME280;13505;45.196;5.696;2023-03-20T06:32:23;99654.16;;;8.13;94.09
25650;BME280;13505;45.196;5.696;2023-03-20T06:37:14;99659.25;;;8.17;93.89
25650;BME280;13505;45.196;5.696;2023-03-20T06:42:04;99652.53;;;8.38;95.28
25650;BME280;13505;45.196;5.696;2023-03-20T06:46:55;99655.25;;;8.35;93.53
25650;BME280;13505;45.196;5.696;2023-03-20T06:51:45;99656.09;;;8.36;94.18
25650;BME280;13505;45.196;5.696;2023-03-20T06:56:37;99662.16;;;8.38;94.72
25650;BME280;13505;45.196;5.696;2023-03-20T07:01:27;99660.41;;;8.38;94.30
25650;BME280;13505;45.196;5.696;2023-03-20T07:06:19;99657.78;;;8.38;94.13
25650;BME280;13505;45.196;5.696;2023-03-20T07:11:09;99681.19;;;8.48;92.92
25650;BME280;13505;45.196;5.696;2023-03-20T07:16:01;99679.13;;;8.59;92.82
25650;BME280;13505;45.196;5.696;2023-03-20T07:20:52;99684.91;;;8.71;91.60
25650;BME280;13505;45.196;5.696;2023-03-20T07:25:42;99679.94;;;8.90;92.05
25650;BME280;13505;45.196;5.696;2023-03-20T07:30:33;99695.28;;;9.32;91.97
25650;BME280;13505;45.196;5.696;2023-03-20T07:35:24;99703.00;;;9.39;91.12
25650;BME280;13505;45.196;5.696;2023-03-20T07:40:15;99699.16;;;9.49;90.63
25650;BME280;13505;45.196;5.696;2023-03-20T07:45:06;99699.81;;;9.56;89.62
25650;BME280;13505;45.196;5.696;2023-03-20T07:49:56;99700.25;;;9.69;89.02
25650;BME280;13505;45.196;5.696;2023-03-20T07:54:47;99705.28;;;10.02;88.27
25650;BME280;13505;45.196;5.696;2023-03-20T07:59:37;99709.41;;;10.09;87.48
25650;BME280;13505;45.196;5.696;2023-03-20T08:04:27;99708.19;;;9.94;86.93
25650;BME280;13505;45.196;5.696;2023-03-20T08:09:18;99707.34;;;10.17;85.97
25650;BME280;13505;45.196;5.696;2023-03-20T08:14:08;99701.00;;;10.49;86.93
25650;BME280;13505;45.196;5.696;2023-03-20T08:18:59;99709.44;;;10.58;86.24
25650;BME280;13505;45.196;5.696;2023-03-20T08:23:54;99716.00;;;10.70;86.54
25650;BME280;13505;45.196;5.696;2023-03-20T08:28:45;99709.78;;;10.49;87.45
25650;BME280;13505;45.196;5.696;2023-03-20T08:33:35;99720.41;;;10.46;89.08
25650;BME280;13505;45.196;5.696;2023-03-20T08:38:26;99718.31;;;10.80;87.39
25650;BME280;13505;45.196;5.696;2023-03-20T08:43:16;99714.03;;;10.99;88.12
25650;BME280;13505;45.196;5.696;2023-03-20T08:48:07;99717.06;;;11.12;87.05
25650;BME280;13505;45.196;5.696;2023-03-20T08:52:58;99725.78;;;11.14;84.87
25650;BME280;13505;45.196;5.696;2023-03-20T08:57:48;99729.94;;;11.20;83.90
25650;BME280;13505;45.196;5.696;2023-03-20T09:02:39;99734.59;;;11.36;81.29
25650;BME280;13505;45.196;5.696;2023-03-20T09:07:30;99739.72;;;11.40;80.86
25650;BME280;13505;45.196;5.696;2023-03-20T09:12:20;99736.53;;;11.32;81.04
25650;BME280;13505;45.196;5.696;2023-03-20T09:17:11;99741.66;;;11.57;80.93
25650;BME280;13505;45.196;5.696;2023-03-20T09:22:01;99736.31;;;11.81;79.81
25650;BME280;13505;45.196;5.696;2023-03-20T09:26:51;99731.22;;;11.97;79.00
25650;BME280;13505;45.196;5.696;2023-03-20T09:31:42;99741.44;;;12.07;78.84
25650;BME280;13505;45.196;5.696;2023-03-20T09:36:32;99746.78;;;12.05;78.54
25650;BME280;13505;45.196;5.696;2023-03-20T09:41:24;99755.69;;;12.03;77.79
25650;BME280;13505;45.196;5.696;2023-03-20T09:47:02;99755.84;;;11.98;76.86
25650;BME280;13505;45.196;5.696;2023-03-20T09:52:08;99760.69;;;11.88;76.59
25650;BME280;13505;45.196;5.696;2023-03-20T09:57:03;99762.84;;;11.99;76.68
25650;BME280;13505;45.196;5.696;2023-03-20T10:01:58;99769.41;;;12.12;77.25
25650;BME280;13505;45.196;5.696;2023-03-20T10:06:49;99766.56;;;11.95;76.93
25650;BME280;13505;45.196;5.696;2023-03-20T10:22:01;99769.50;;;12.51;75.41
25650;BME280;13505;45.196;5.696;2023-03-20T10:27:00;99770.31;;;12.72;73.48
25650;BME280;13505;45.196;5.696;2023-03-20T10:42:29;99766.03;;;12.89;72.67
25650;BME280;13505;45.196;5.696;2023-03-20T10:47:23;99768.13;;;13.01;72.73
25650;BME280;13505;45.196;5.696;2023-03-20T10:52:21;99777.75;;;12.83;71.63
25650;BME280;13505;45.196;5.696;2023-03-20T10:57:38;99774.69;;;12.92;70.58
25650;BME280;13505;45.196;5.696;2023-03-20T11:02:29;99780.97;;;12.70;71.11
25650;BME280;13505;45.196;5.696;2023-03-20T11:07:25;99785.78;;;12.81;69.85
25650;BME280;13505;45.196;5.696;2023-03-20T11:12:18;99780.28;;;12.86;68.81
25650;BME280;13505;45.196;5.696;2023-03-20T11:17:10;99789.06;;;12.87;68.98
25650;BME280;13505;45.196;5.696;2023-03-20T11:27:16;99789.00;;;13.07;66.85
25650;BME280;13505;45.196;5.696;2023-03-20T11:32:27;99781.84;;;13.09;66.85
25650;BME280;13505;45.196;5.696;2023-03-20T11:37:28;99780.06;;;13.10;66.91
25650;BME280;13505;45.196;5.696;2023-03-20T11:42:25;99785.66;;;13.04;65.80
25650;BME280;13505;45.196;5.696;2023-03-20T11:47:21;99772.69;;;13.17;66.01
25650;BME280;13505;45.196;5.696;2023-03-20T11:52:13;99775.91;;;13.23;64.44
25650;BME280;13505;45.196;5.696;2023-03-20T11:57:04;99768.84;;;13.24;64.71
25650;BME280;13505;45.196;5.696;2023-03-20T12:01:56;99762.94;;;13.56;64.50
25650;BME280;13505;45.196;5.696;2023-03-20T12:07:12;99765.38;;;13.78;63.78
25650;BME280;13505;45.196;5.696;2023-03-20T12:12:11;99762.63;;;13.79;61.96
25650;BME280;13505;45.196;5.696;2023-03-20T12:22:23;99747.59;;;14.15;61.24
25650;BME280;13505;45.196;5.696;2023-03-20T12:27:34;99737.97;;;14.30;60.93
25650;BME280;13505;45.196;5.696;2023-03-20T12:32:40;99738.25;;;14.42;60.13
25650;BME280;13505;45.196;5.696;2023-03-20T12:37:33;99729.63;;;14.54;58.86
25650;BME280;13505;45.196;5.696;2023-03-20T12:43:03;99724.75;;;14.46;59.41
25650;BME280;13505;45.196;5.696;2023-03-20T12:48:03;99721.09;;;14.49;59.12
25650;BME280;13505;45.196;5.696;2023-03-20T13:14:10;99661.91;;;13.62;59.37
25650;BME280;13505;45.196;5.696;2023-03-20T13:24:21;99635.53;;;14.60;56.43
25650;BME280;13505;45.196;5.696;2023-03-20T13:39:30;99608.25;;;14.74;53.54
25650;BME280;13505;45.196;5.696;2023-03-20T13:44:24;99605.31;;;14.46;nan
25650;BME280;13505;45.196;5.696;2023-03-20T13:59:52;99575.59;;;15.49;52.53
25650;BME280;13505;45.196;5.696;2023-03-20T14:04:50;99562.75;;;14.64;50.88
25650;BME280;13505;45.196;5.696;2023-03-20T14:09:41;99571.94;;;15.21;53.31
25650;BME280;13505;45.196;5.696;2023-03-20T14:14:40;99567.22;;;14.79;50.38
25650;BME280;13505;45.196;5.696;2023-03-20T14:19:31;99567.63;;;14.88;54.06
25650;BME280;13505;45.196;5.696;2023-03-20T14:24:25;99564.38;;;14.99;50.00
25650;BME280;13505;45.196;5.696;2023-03-20T14:34:11;99555.41;;;15.16;50.22
25650;BME280;13505;45.196;5.696;2023-03-20T14:49:47;99523.56;;;15.30;51.21
25650;BME280;13505;45.196;5.696;2023-03-20T14:54:40;99529.06;;;15.27;50.65
25650;BME280;13505;45.196;5.696;2023-03-20T14:59:31;99525.88;;;14.75;49.77
25650;BME280;13505;45.196;5.696;2023-03-20T15:09:25;99524.63;;;14.97;50.42
25650;BME280;13505;45.196;5.696;2023-03-20T15:14:26;99516.63;;;14.67;51.10
25650;BME280;13505;45.196;5.696;2023-03-20T15:19:18;99520.38;;;14.78;50.83
25650;BME280;13505;45.196;5.696;2023-03-20T15:24:19;99511.41;;;14.96;51.01
25650;BME280;13505;45.196;5.696;2023-03-20T15:29:13;99511.75;;;15.05;51.34
25650;BME280;13505;45.196;5.696;2023-03-20T15:34:16;99508.53;;;14.84;49.92
25650;BME280;13505;45.196;5.696;2023-03-20T15:49:05;99494.56;;;14.81;52.17
25650;BME280;13505;45.196;5.696;2023-03-20T15:53:55;99498.09;;;14.65;50.68
25650;BME280;13505;45.196;5.696;2023-03-20T15:58:49;99487.81;;;14.75;51.21
25650;BME280;13505;45.196;5.696;2023-03-20T16:03:41;99488.66;;;14.91;51.63
25650;BME280;13505;45.196;5.696;2023-03-20T16:08:33;99482.75;;;14.86;51.38
25650;BME280;13505;45.196;5.696;2023-03-20T16:13:24;99486.56;;;14.97;51.96
25650;BME280;13505;45.196;5.696;2023-03-20T16:18:16;99479.94;;;15.04;51.54
25650;BME280;13505;45.196;5.696;2023-03-20T16:23:07;99486.28;;;15.01;51.78
25650;BME280;13505;45.196;5.696;2023-03-20T16:27:59;99487.50;;;14.96;51.39
25650;BME280;13505;45.196;5.696;2023-03-20T16:32:55;99488.16;;;14.85;51.61
25650;BME280;13505;45.196;5.696;2023-03-20T16:37:52;99492.97;;;14.62;52.06
25650;BME280;13505;45.196;5.696;2023-03-20T16:42:43;99500.44;;;14.39;53.05
25650;BME280;13505;45.196;5.696;2023-03-20T16:47:35;99503.91;;;14.25;53.85
25650;BME280;13505;45.196;5.696;2023-03-20T16:52:30;99501.06;;;14.12;54.34
25650;BME280;13505;45.196;5.696;2023-03-20T16:57:21;99507.13;;;13.98;55.81
25650;BME280;13505;45.196;5.696;2023-03-20T17:02:32;99513.97;;;13.86;56.19
25650;BME280;13505;45.196;5.696;2023-03-20T17:07:24;99506.34;;;13.80;56.58
25650;BME280;13505;45.196;5.696;2023-03-20T17:12:17;99502.47;;;13.70;56.70
25650;BME280;13505;45.196;5.696;2023-03-20T17:17:19;99510.31;;;13.55;58.75
25650;BME280;13505;45.196;5.696;2023-03-20T17:22:13;99530.28;;;13.45;59.17
25650;BME280;13505;45.196;5.696;2023-03-20T17:27:04;99526.97;;;13.39;59.84
25650;BME280;13505;45.196;5.696;2023-03-20T17:31:55;99528.06;;;13.35;60.11
25650;BME280;13505;45.196;5.696;2023-03-20T17:36:47;99546.31;;;13.24;61.14
25650;BME280;13505;45.196;5.696;2023-03-20T17:41:37;99541.38;;;13.16;61.15
25650;BME280;13505;45.196;5.696;2023-03-20T17:46:29;99544.97;;;13.15;61.67
25650;BME280;13505;45.196;5.696;2023-03-20T17:51:20;99547.78;;;13.12;61.33
25650;BME280;13505;45.196;5.696;2023-03-20T17:56:13;99543.66;;;13.06;61.95
25650;BME280;13505;45.196;5.696;2023-03-20T18:01:04;99542.13;;;13.02;61.77
25650;BME280;13505;45.196;5.696;2023-03-20T18:05:56;99549.41;;;12.97;62.80
25650;BME280;13505;45.196;5.696;2023-03-20T18:10:50;99553.78;;;12.98;62.61
25650;BME280;13505;45.196;5.696;2023-03-20T18:15:41;99541.63;;;12.94;62.38
25650;BME280;13505;45.196;5.696;2023-03-20T18:20:35;99552.75;;;12.83;63.38
25650;BME280;13505;45.196;5.696;2023-03-20T18:25:26;99562.94;;;12.73;63.11
25650;BME280;13505;45.196;5.696;2023-03-20T18:30:20;99564.94;;;12.68;64.47
25650;BME280;13505;45.196;5.696;2023-03-20T18:35:10;99569.81;;;12.58;64.75
25650;BME280;13505;45.196;5.696;2023-03-20T18:40:01;99578.25;;;12.47;65.41
25650;BME280;13505;45.196;5.696;2023-03-20T18:44:52;99576.34;;;12.32;67.34
25650;BME280;13505;45.196;5.696;2023-03-20T18:49:43;99578.13;;;12.12;68.73
25650;BME280;13505;45.196;5.696;2023-03-20T18:54:33;99575.34;;;11.94;69.49
25650;BME280;13505;45.196;5.696;2023-03-20T18:59:23;99577.63;;;11.83;70.23
25650;BME280;13505;45.196;5.696;2023-03-20T19:04:14;99590.34;;;11.75;71.13
25650;BME280;13505;45.196;5.696;2023-03-20T19:09:04;99579.09;;;11.69;71.19
25650;BME280;13505;45.196;5.696;2023-03-20T19:13:55;99597.06;;;11.61;71.06
25650;BME280;13505;45.196;5.696;2023-03-20T19:18:45;99596.56;;;11.53;71.42
25650;BME280;13505;45.196;5.696;2023-03-20T19:23:36;99594.63;;;11.56;72.04
25650;BME280;13505;45.196;5.696;2023-03-20T19:28:28;99589.16;;;11.61;72.47
25650;BME280;13505;45.196;5.696;2023-03-20T19:33:22;99590.66;;;11.67;72.05
25650;BME280;13505;45.196;5.696;2023-03-20T19:38:17;99600.25;;;11.49;71.13
25650;BME280;13505;45.196;5.696;2023-03-20T19:43:08;99596.69;;;11.29;71.39
25650;BME280;13505;45.196;5.696;2023-03-20T19:47:58;99590.16;;;11.17;71.77
25650;BME280;13505;45.196;5.696;2023-03-20T19:52:49;99579.00;;;10.88;73.35
25650;BME280;13505;45.196;5.696;2023-03-20T19:57:39;99583.63;;;11.03;72.58
25650;BME280;13505;45.196;5.696;2023-03-20T20:02:30;99584.59;;;10.80;73.66
25650;BME280;13505;45.196;5.696;2023-03-20T20:07:20;99591.09;;;10.94;73.48
25650;BME280;13505;45.196;5.696;2023-03-20T20:12:10;99590.28;;;10.47;74.37
25650;BME280;13505;45.196;5.696;2023-03-20T20:17:01;99587.91;;;10.63;74.36
25650;BME280;13505;45.196;5.696;2023-03-20T20:21:51;99593.28;;;10.60;74.58
25650;BME280;13505;45.196;5.696;2023-03-20T20:26:41;99590.78;;;10.57;74.66
25650;BME280;13505;45.196;5.696;2023-03-20T20:31:32;99590.91;;;10.54;74.27
25650;BME280;13505;45.196;5.696;2023-03-20T20:36:22;99593.25;;;10.38;74.09
25650;BME280;13505;45.196;5.696;2023-03-20T20:41:12;99576.56;;;10.37;74.08
25650;BME280;13505;45.196;5.696;2023-03-20T20:46:03;99576.94;;;10.52;73.34
25650;BME280;13505;45.196;5.696;2023-03-20T20:50:58;99582.81;;;10.58;72.98
25650;BME280;13505;45.196;5.696;2023-03-20T20:55:50;99577.94;;;10.47;73.13
25650;BME280;13505;45.196;5.696;2023-03-20T21:00:40;99579.94;;;10.42;73.33
25650;BME280;13505;45.196;5.696;2023-03-20T21:05:31;99568.66;;;10.37;74.02
25650;BME280;13505;45.196;5.696;2023-03-20T21:10:23;99576.53;;;10.61;73.47
25650;BME280;13505;45.196;5.696;2023-03-20T21:15:13;99577.16;;;10.22;73.53
25650;BME280;13505;45.196;5.696;2023-03-20T21:20:04;99575.88;;;10.32;73.93
25650;BME280;13505;45.196;5.696;2023-03-20T21:24:55;99579.66;;;10.25;74.04
25650;BME280;13505;45.196;5.696;2023-03-20T21:29:46;99576.63;;;10.12;73.95
25650;BME280;13505;45.196;5.696;2023-03-20T21:34:38;99576.13;;;10.26;73.65
25650;BME280;13505;45.196;5.696;2023-03-20T21:39:29;99576.16;;;10.24;74.40
25650;BME280;13505;45.196;5.696;2023-03-20T21:44:20;99574.28;;;10.28;73.16
25650;BME280;13505;45.196;5.696;2023-03-20T21:49:10;99575.28;;;10.25;72.98
25650;BME280;13505;45.196;5.696;2023-03-20T21:54:01;99575.38;;;10.22;73.37
25650;BME280;13505;45.196;5.696;2023-03-20T21:58:52;99573.94;;;10.13;73.14
25650;BME280;13505;45.196;5.696;2023-03-20T22:03:42;99573.78;;;9.94;74.48
25650;BME280;13505;45.196;5.696;2023-03-20T22:08:33;99566.84;;;9.91;74.43
25650;BME280;13505;45.196;5.696;2023-03-20T22:13:24;99572.13;;;9.91;74.85
25650;BME280;13505;45.196;5.696;2023-03-20T22:18:14;99568.84;;;9.85;73.71
25650;BME280;13505;45.196;5.696;2023-03-20T22:23:06;99562.78;;;9.83;74.27
25650;BME280;13505;45.196;5.696;2023-03-20T22:27:56;99574.00;;;9.88;74.10
25650;BME280;13505;45.196;5.696;2023-03-20T22:32:46;99572.91;;;9.70;74.67
25650;BME280;13505;45.196;5.696;2023-03-20T22:37:37;99563.16;;;9.72;74.54
25650;BME280;13505;45.196;5.696;2023-03-20T22:42:27;99559.91;;;9.65;75.09
25650;BME280;13505;45.196;5.696;2023-03-20T22:47:18;99573.88;;;9.67;75.06
25650;BME280;13505;45.196;5.696;2023-03-20T22:52:09;99569.47;;;9.68;73.58
25650;BME280;13505;45.196;5.696;2023-03-20T22:56:59;99564.63;;;9.55;74.76
